Terminal Aerodrome Forecast
Issued by NWS

Home | Current Version | Previous Version | Text Only | Print | Product List | Glossary Off
Versions: 1 2 3 4 5 6 7 8 9 10 11 12 13 14 15 16 17 18 19 20

000
FTUS43 KICT 291842 AAA
TAFCNU
TAF AMD
KCNU 291842Z 2919/3018 36007KT P6SM BKN030
     FM292200 36007KT P6SM SCT030
     FM300200 VRB05KT P6SM BKN025
     FM301000 01006KT 4SM BR BKN015
     FM301700 02010KT P6SM SCT015 BKN030=

USA.gov is the U.S. government's official web portal to all federal, state and local government web resources and services.